Time,TemperatureF,DewpointF,PressureIn,WindDirection,WindDirectionDegrees,WindSpeedMPH,WindSpeedGustMPH,Humidity,HourlyPrecipIn,Conditions,Clouds,dailyrainin,SoftwareType,DateUTC
2013-02-13 00:02:00,24.0,20.0,29.96,WSW,252,4.0,5.0,84,0.00,,,0.00,,2013-02-13 06:02:00,
2013-02-13 00:11:00,24.0,20.0,29.96,West,261,4.0,5.0,83,0.00,,,0.00,,2013-02-13 06:11:00,
2013-02-13 00:21:00,24.0,20.0,29.96,West,261,4.0,5.0,83,0.00,,,0.00,,2013-02-13 06:21:00,
2013-02-13 00:32:00,25.0,21.0,29.96,WSW,252,2.0,5.0,84,0.00,,,0.00,,2013-02-13 06:32:00,
2013-02-13 00:42:00,22.0,18.0,29.97,WSW,257,4.0,5.0,84,0.00,,,0.00,,2013-02-13 06:42:00,
2013-02-13 00:52:00,22.0,18.0,29.97,WSW,257,4.0,5.0,84,0.00,,,0.00,,2013-02-13 06:52:00,
2013-02-13 01:02:00,23.0,19.0,29.96,WSW,257,3.0,5.0,84,0.00,,,0.00,,2013-02-13 07:02:00,
2013-02-13 01:11:00,23.0,19.0,29.96,WSW,257,3.0,5.0,83,0.00,,,0.00,,2013-02-13 07:11:00,
2013-02-13 01:21:00,23.0,19.0,29.96,WSW,257,3.0,5.0,83,0.00,,,0.00,,2013-02-13 07:21:00,
2013-02-13 01:31:00,20.0,16.0,29.95,West,259,3.0,4.0,85,0.00,,,0.00,,2013-02-13 07:31:00,
2013-02-13 01:41:00,20.0,17.0,29.96,West,265,4.0,6.0,88,0.00,,,0.00,,2013-02-13 07:41:00,
2013-02-13 01:52:00,20.0,17.0,29.96,West,265,4.0,6.0,88,0.00,,,0.00,,2013-02-13 07:52:00,
2013-02-13 02:01:00,22.0,20.0,29.95,West,261,5.0,6.0,91,0.00,,,0.00,,2013-02-13 08:01:00,
2013-02-13 02:11:00,23.0,18.0,29.95,WSW,250,5.0,6.0,82,0.00,,,0.00,,2013-02-13 08:11:00,
2013-02-13 02:21:00,23.0,18.0,29.95,WSW,250,5.0,6.0,82,0.00,,,0.00,,2013-02-13 08:21:00,
2013-02-13 02:31:00,23.0,18.0,29.94,West,259,4.0,5.0,80,0.00,,,0.00,,2013-02-13 08:31:00,
2013-02-13 02:43:00,23.0,18.0,29.94,West,259,4.0,5.0,80,0.00,,,0.00,,2013-02-13 08:43:00,
2013-02-13 02:52:00,21.0,17.0,29.94,West,269,4.0,5.0,85,0.00,,,0.00,,2013-02-13 08:52:00,
2013-02-13 03:01:00,23.0,19.0,29.95,West,267,4.0,6.0,86,0.00,,,0.00,,2013-02-13 09:01:00,
2013-02-13 03:11:00,23.0,19.0,29.95,West,267,4.0,6.0,86,0.00,,,0.00,,2013-02-13 09:11:00,
2013-02-13 03:21:00,24.0,20.0,29.94,West,261,3.0,5.0,83,0.00,,,0.00,,2013-02-13 09:21:00,
2013-02-13 03:31:00,25.0,21.0,29.94,West,261,2.0,3.0,83,0.00,,,0.00,,2013-02-13 09:31:00,
2013-02-13 03:41:00,24.0,19.0,29.93,WSW,258,4.0,5.0,82,0.00,,,0.00,,2013-02-13 09:41:00,
2013-02-13 03:52:00,24.0,19.0,29.93,WSW,258,4.0,5.0,82,0.00,,,0.00,,2013-02-13 09:52:00,
2013-02-13 04:01:00,24.0,19.0,29.93,WSW,253,4.0,5.0,82,0.00,,,0.00,,2013-02-13 10:01:00,
2013-02-13 04:11:00,25.0,20.0,29.93,WSW,246,4.0,5.0,82,0.00,,,0.00,,2013-02-13 10:11:00,
2013-02-13 04:21:00,25.0,20.0,29.93,WSW,246,4.0,5.0,82,0.00,,,0.00,,2013-02-13 10:21:00,
2013-02-13 04:32:00,26.0,21.0,29.92,SW,235,6.0,7.0,80,0.00,,,0.00,,2013-02-13 10:32:00,
2013-02-13 04:41:00,26.0,20.0,29.92,WSW,255,4.0,7.0,79,0.00,,,0.00,,2013-02-13 10:41:00,
2013-02-13 04:52:00,26.0,20.0,29.92,WSW,255,4.0,7.0,79,0.00,,,0.00,,2013-02-13 10:52:00,
2013-02-13 05:01:00,24.0,19.0,29.92,WSW,255,3.0,6.0,81,0.00,,,0.00,,2013-02-13 11:01:00,
2013-02-13 05:11:00,24.0,19.0,29.92,WSW,255,3.0,6.0,81,0.00,,,0.00,,2013-02-13 11:11:00,
2013-02-13 05:22:00,25.0,20.0,29.92,West,259,3.0,6.0,81,0.00,,,0.00,,2013-02-13 11:22:00,
2013-02-13 05:32:00,25.0,20.0,29.92,West,265,1.0,4.0,81,0.00,,,0.00,,2013-02-13 11:32:00,
2013-02-13 05:42:00,24.0,19.0,29.92,WNW,282,0.0,2.0,81,0.00,,,0.00,,2013-02-13 11:42:00,
2013-02-13 05:52:00,24.0,19.0,29.92,WNW,282,0.0,2.0,81,0.00,,,0.00,,2013-02-13 11:52:00,
2013-02-13 06:02:00,25.0,20.0,29.91,WSW,252,3.0,5.0,81,0.00,,,0.00,,2013-02-13 12:02:00,
2013-02-13 06:11:00,25.0,20.0,29.91,WSW,246,2.0,5.0,81,0.00,,,0.00,,2013-02-13 12:11:00,
2013-02-13 06:21:00,25.0,20.0,29.91,WSW,246,2.0,5.0,81,0.00,,,0.00,,2013-02-13 12:21:00,
2013-02-13 06:32:00,25.0,20.0,29.91,WSW,246,2.0,4.0,81,0.00,,,0.00,,2013-02-13 12:32:00,
2013-02-13 06:42:00,25.0,20.0,29.90,WSW,254,5.0,7.0,81,0.00,,,0.00,,2013-02-13 12:42:00,
2013-02-13 06:52:00,25.0,20.0,29.90,WSW,254,5.0,7.0,81,0.00,,,0.00,,2013-02-13 12:52:00,
2013-02-13 07:02:00,24.0,19.0,29.90,WSW,241,6.0,8.0,82,0.00,,,0.00,,2013-02-13 13:02:00,
2013-02-13 07:11:00,24.0,20.0,29.90,WSW,244,6.0,7.0,83,0.00,,,0.00,,2013-02-13 13:11:00,
2013-02-13 07:21:00,24.0,20.0,29.90,WSW,244,6.0,7.0,83,0.00,,,0.00,,2013-02-13 13:21:00,
2013-02-13 07:32:00,24.0,20.0,29.90,SW,236,5.0,7.0,83,0.00,,,0.00,,2013-02-13 13:32:00,
2013-02-13 07:41:00,25.0,21.0,29.91,WSW,257,6.0,8.0,83,0.00,,,0.00,,2013-02-13 13:41:00,
2013-02-13 07:52:00,25.0,21.0,29.91,WSW,257,6.0,8.0,83,0.00,,,0.00,,2013-02-13 13:52:00,
2013-02-13 08:01:00,26.0,21.0,29.91,West,265,6.0,9.0,82,0.00,,,0.00,,2013-02-13 14:01:00,
2013-02-13 08:11:00,28.0,23.0,29.92,West,273,8.0,11.0,80,0.00,,,0.00,,2013-02-13 14:11:00,
2013-02-13 08:21:00,28.0,23.0,29.92,West,273,8.0,11.0,80,0.00,,,0.00,,2013-02-13 14:21:00,
2013-02-13 08:31:00,29.0,24.0,29.92,West,277,8.0,13.0,80,0.00,,,0.00,,2013-02-13 14:31:00,
2013-02-13 08:41:00,30.0,24.0,29.92,West,273,10.0,14.0,78,0.00,,,0.00,,2013-02-13 14:41:00,
2013-02-13 08:52:00,30.0,24.0,29.92,West,273,10.0,14.0,78,0.00,,,0.00,,2013-02-13 14:52:00,
2013-02-13 09:01:00,31.0,24.0,29.91,West,265,9.0,15.0,76,0.00,,,0.00,,2013-02-13 15:01:00,
2013-02-13 09:11:00,32.0,25.0,29.91,WSW,258,6.0,12.0,76,0.00,,,0.00,,2013-02-13 15:11:00,
2013-02-13 09:21:00,32.0,25.0,29.91,WSW,258,6.0,12.0,76,0.00,,,0.00,,2013-02-13 15:21:00,
2013-02-13 09:32:00,34.0,27.0,29.91,West,274,7.0,12.0,74,0.00,,,0.00,,2013-02-13 15:32:00,
2013-02-13 09:52:00,35.0,27.0,29.91,West,275,6.0,12.0,73,0.00,,,0.00,,2013-02-13 15:52:00,
2013-02-13 10:01:00,35.0,27.0,29.91,West,269,8.0,11.0,72,0.00,,,0.00,,2013-02-13 16:01:00,
2013-02-13 10:11:00,36.0,27.0,29.91,West,270,7.0,10.0,70,0.00,,,0.00,,2013-02-13 16:11:00,
2013-02-13 10:21:00,36.0,27.0,29.91,West,270,7.0,10.0,70,0.00,,,0.00,,2013-02-13 16:21:00,
2013-02-13 10:31:00,37.0,27.0,29.92,West,263,10.0,14.0,68,0.00,,,0.00,,2013-02-13 16:31:00,
2013-02-13 10:42:00,37.0,27.0,29.92,West,263,10.0,14.0,68,0.00,,,0.00,,2013-02-13 16:42:00,
2013-02-13 10:52:00,38.0,27.0,29.91,WSW,252,10.0,14.0,65,0.00,,,0.00,,2013-02-13 16:52:00,
2013-02-13 11:01:00,39.0,27.0,29.91,NW,308,8.0,13.0,63,0.00,,,0.00,,2013-02-13 17:01:00,
2013-02-13 11:11:00,40.0,28.0,29.90,WSW,241,8.0,11.0,61,0.00,,,0.00,,2013-02-13 17:11:00,
2013-02-13 11:21:00,40.0,28.0,29.90,WSW,241,8.0,11.0,61,0.00,,,0.00,,2013-02-13 17:21:00,
2013-02-13 11:31:00,42.0,28.0,29.90,WSW,242,9.0,14.0,58,0.00,,,0.00,,2013-02-13 17:31:00,
2013-02-13 11:41:00,42.0,28.0,29.90,WSW,242,9.0,14.0,58,0.00,,,0.00,,2013-02-13 17:41:00,
2013-02-13 11:52:00,42.0,27.0,29.90,WSW,252,13.0,16.0,56,0.00,,,0.00,,2013-02-13 17:52:00,
2013-02-13 12:01:00,43.0,28.0,29.90,West,261,13.0,18.0,54,0.00,,,0.00,,2013-02-13 18:01:00,
2013-02-13 12:11:00,45.0,29.0,29.89,West,267,11.0,15.0,53,0.00,,,0.00,,2013-02-13 18:11:00,
2013-02-13 12:22:00,45.0,29.0,29.89,West,267,11.0,15.0,53,0.00,,,0.00,,2013-02-13 18:22:00,
2013-02-13 12:32:00,46.0,28.0,29.88,West,259,12.0,16.0,50,0.00,,,0.00,,2013-02-13 18:32:00,
2013-02-13 12:41:00,46.0,28.0,29.88,West,259,12.0,16.0,50,0.00,,,0.00,,2013-02-13 18:41:00,
2013-02-13 12:52:00,46.0,27.0,29.88,West,275,10.0,18.0,48,0.00,,,0.00,,2013-02-13 18:52:00,
2013-02-13 13:01:00,48.0,28.0,29.87,West,265,11.0,19.0,46,0.00,,,0.00,,2013-02-13 19:01:00,
2013-02-13 13:11:00,49.0,29.0,29.86,WSW,248,9.0,16.0,45,0.00,,,0.00,,2013-02-13 19:11:00,
2013-02-13 13:21:00,49.0,29.0,29.86,WSW,248,9.0,16.0,45,0.00,,,0.00,,2013-02-13 19:21:00,
2013-02-13 13:31:00,50.0,27.0,29.85,WSW,252,8.0,14.0,41,0.00,,,0.00,,2013-02-13 19:31:00,
2013-02-13 13:41:00,50.0,27.0,29.85,WSW,252,8.0,14.0,41,0.00,,,0.00,,2013-02-13 19:41:00,
2013-02-13 13:52:00,51.0,28.0,29.85,West,264,13.0,19.0,41,0.00,,,0.00,,2013-02-13 19:52:00,
2013-02-13 14:02:00,52.0,28.0,29.84,West,266,10.0,19.0,40,0.00,,,0.00,,2013-02-13 20:02:00,
2013-02-13 14:11:00,52.0,27.0,29.84,West,266,14.0,22.0,38,0.00,,,0.00,,2013-02-13 20:11:00,
2013-02-13 14:21:00,52.0,27.0,29.84,West,266,14.0,22.0,38,0.00,,,0.00,,2013-02-13 20:21:00,
2013-02-13 14:31:00,53.0,27.0,29.83,West,259,12.0,22.0,37,0.00,,,0.00,,2013-02-13 20:31:00,
2013-02-13 14:42:00,52.0,27.0,29.83,WNW,288,12.0,24.0,37,0.00,,,0.00,,2013-02-13 20:42:00,
2013-02-13 14:52:00,52.0,27.0,29.83,WNW,288,12.0,24.0,37,0.00,,,0.00,,2013-02-13 20:52:00,
2013-02-13 15:01:00,53.0,27.0,29.82,WNW,286,10.0,20.0,36,0.00,,,0.00,,2013-02-13 21:01:00,
2013-02-13 15:11:00,53.0,27.0,29.82,WNW,286,10.0,20.0,36,0.00,,,0.00,,2013-02-13 21:11:00,
2013-02-13 15:21:00,53.0,25.0,29.82,WSW,251,14.0,26.0,34,0.00,,,0.00,,2013-02-13 21:21:00,
2013-02-13 15:31:00,54.0,26.0,29.82,WSW,258,13.0,22.0,34,0.00,,,0.00,,2013-02-13 21:31:00,
2013-02-13 15:42:00,54.0,26.0,29.82,West,259,12.0,20.0,33,0.00,,,0.00,,2013-02-13 21:42:00,
2013-02-13 15:52:00,54.0,26.0,29.82,West,259,12.0,20.0,33,0.00,,,0.00,,2013-02-13 21:52:00,
2013-02-13 16:02:00,54.0,24.0,29.81,West,274,11.0,19.0,31,0.00,,,0.00,,2013-02-13 22:02:00,
2013-02-13 16:11:00,55.0,24.0,29.81,West,271,10.0,19.0,30,0.00,,,0.00,,2013-02-13 22:11:00,
2013-02-13 16:21:00,55.0,24.0,29.81,West,271,10.0,19.0,30,0.00,,,0.00,,2013-02-13 22:21:00,
2013-02-13 16:31:00,55.0,24.0,29.81,West,264,13.0,19.0,30,0.00,,,0.00,,2013-02-13 22:31:00,
2013-02-13 16:42:00,55.0,24.0,29.81,West,264,13.0,19.0,30,0.00,,,0.00,,2013-02-13 22:42:00,
2013-02-13 16:52:00,55.0,24.0,29.81,WNW,288,8.0,16.0,30,0.00,,,0.00,,2013-02-13 22:52:00,
2013-02-13 17:01:00,54.0,24.0,29.80,West,273,12.0,21.0,31,0.00,,,0.00,,2013-02-13 23:01:00,
2013-02-13 17:11:00,54.0,24.0,29.80,WNW,296,8.0,14.0,31,0.00,,,0.00,,2013-02-13 23:11:00,
2013-02-13 17:21:00,54.0,24.0,29.80,WNW,296,8.0,14.0,31,0.00,,,0.00,,2013-02-13 23:21:00,
2013-02-13 17:32:00,53.0,25.0,29.80,West,271,9.0,18.0,33,0.00,,,0.00,,2013-02-13 23:32:00,
2013-02-13 17:42:00,53.0,25.0,29.80,West,271,9.0,18.0,33,0.00,,,0.00,,2013-02-13 23:42:00,
2013-02-13 17:52:00,52.0,25.0,29.81,West,281,8.0,20.0,34,0.00,,,0.00,,2013-02-13 23:52:00,
2013-02-13 18:01:00,50.0,25.0,29.81,West,271,8.0,11.0,37,0.00,,,0.00,,2013-02-14 00:01:00,
2013-02-13 18:11:00,50.0,25.0,29.81,West,271,8.0,11.0,37,0.00,,,0.00,,2013-02-14 00:11:00,
2013-02-13 18:21:00,46.0,24.0,29.82,West,263,6.0,8.0,41,0.00,,,0.00,,2013-02-14 00:21:00,
2013-02-13 18:32:00,43.0,24.0,29.82,WSW,257,5.0,6.0,46,0.00,,,0.00,,2013-02-14 00:32:00,
2013-02-13 18:52:00,42.0,24.0,29.82,WSW,250,5.0,6.0,48,0.00,,,0.00,,2013-02-14 00:52:00,
2013-02-13 19:01:00,41.0,24.0,29.82,WSW,250,5.0,6.0,50,0.00,,,0.00,,2013-02-14 01:01:00,
2013-02-13 19:11:00,40.0,23.0,29.82,WSW,248,5.0,5.0,51,0.00,,,0.00,,2013-02-14 01:11:00,
2013-02-13 19:21:00,40.0,23.0,29.82,WSW,248,5.0,5.0,51,0.00,,,0.00,,2013-02-14 01:21:00,
2013-02-13 19:31:00,37.0,24.0,29.82,WSW,252,5.0,6.0,58,0.00,,,0.00,,2013-02-14 01:31:00,
2013-02-13 19:52:00,38.0,24.0,29.82,WSW,248,5.0,6.0,57,0.00,,,0.00,,2013-02-14 01:52:00,
2013-02-13 20:01:00,39.0,25.0,29.82,WSW,253,4.0,5.0,58,0.00,,,0.00,,2013-02-14 02:01:00,
2013-02-13 20:11:00,40.0,25.0,29.83,WSW,254,4.0,6.0,55,0.00,,,0.00,,2013-02-14 02:11:00,
2013-02-13 20:21:00,40.0,25.0,29.83,WSW,254,4.0,6.0,55,0.00,,,0.00,,2013-02-14 02:21:00,
2013-02-13 20:31:00,39.0,25.0,29.83,WSW,254,3.0,3.0,58,0.00,,,0.00,,2013-02-14 02:31:00,
2013-02-13 20:41:00,39.0,25.0,29.83,WSW,254,3.0,3.0,58,0.00,,,0.00,,2013-02-14 02:41:00,
2013-02-13 20:52:00,39.0,25.0,29.83,WSW,254,3.0,3.0,58,0.00,,,0.00,,2013-02-14 02:52:00,
2013-02-13 21:02:00,38.0,26.0,29.83,WSW,252,6.0,6.0,61,0.00,,,0.00,,2013-02-14 03:02:00,
2013-02-13 21:11:00,37.0,25.0,29.83,WSW,254,4.0,6.0,62,0.00,,,0.00,,2013-02-14 03:11:00,
2013-02-13 21:21:00,37.0,25.0,29.83,WSW,254,4.0,6.0,62,0.00,,,0.00,,2013-02-14 03:21:00,
2013-02-13 21:31:00,37.0,25.0,29.83,West,279,2.0,3.0,62,0.00,,,0.00,,2013-02-14 03:31:00,
2013-02-13 21:42:00,37.0,25.0,29.83,West,279,2.0,3.0,62,0.00,,,0.00,,2013-02-14 03:42:00,
2013-02-13 21:52:00,37.0,25.0,29.83,West,272,2.0,3.0,62,0.00,,,0.00,,2013-02-14 03:52:00,
2013-02-13 22:01:00,37.0,25.0,29.84,West,273,2.0,3.0,62,0.00,,,0.00,,2013-02-14 04:01:00,
2013-02-13 22:11:00,36.0,25.0,29.84,West,269,3.0,5.0,64,0.00,,,0.00,,2013-02-14 04:11:00,
2013-02-13 22:21:00,36.0,25.0,29.84,West,269,3.0,5.0,64,0.00,,,0.00,,2013-02-14 04:21:00,
2013-02-13 22:31:00,37.0,26.0,29.84,West,275,2.0,3.0,63,0.00,,,0.00,,2013-02-14 04:31:00,
2013-02-13 22:41:00,37.0,26.0,29.84,West,275,2.0,3.0,63,0.00,,,0.00,,2013-02-14 04:41:00,
2013-02-13 22:52:00,37.0,25.0,29.84,WSW,256,3.0,5.0,61,0.00,,,0.00,,2013-02-14 04:52:00,
2013-02-13 23:01:00,36.0,25.0,29.85,West,261,3.0,5.0,63,0.00,,,0.00,,2013-02-14 05:01:00,
2013-02-13 23:11:00,36.0,25.0,29.85,West,261,3.0,5.0,63,0.00,,,0.00,,2013-02-14 05:11:00,
2013-02-13 23:21:00,35.0,24.0,29.85,West,265,2.0,4.0,65,0.00,,,0.00,,2013-02-14 05:21:00,
2013-02-13 23:31:00,35.0,25.0,29.85,WSW,258,3.0,5.0,66,0.00,,,0.00,,2013-02-14 05:31:00,
2013-02-13 23:41:00,35.0,25.0,29.85,WSW,258,3.0,5.0,66,0.00,,,0.00,,2013-02-14 05:41:00,
2013-02-13 23:52:00,34.0,24.0,29.85,West,259,1.0,4.0,67,0.00,,,0.00,,2013-02-14 05:52:00,